createdAt,value
2019-01-24T00:02:38.669Z,16.10
2019-01-24T00:05:25.518Z,17.57
2019-01-24T00:08:12.502Z,15.40
2019-01-24T00:10:59.815Z,17.20
2019-01-24T00:13:47.150Z,16.60
2019-01-24T00:16:33.854Z,16.70
2019-01-24T00:19:20.605Z,16.70
2019-01-24T00:22:07.566Z,15.50
2019-01-24T00:24:54.280Z,16.50
2019-01-24T00:27:41.292Z,17.07
2019-01-24T00:30:29.030Z,16.53
2019-01-24T00:33:16.242Z,16.20
2019-01-24T00:36:03.362Z,17.70
2019-01-24T00:38:50.375Z,16.23
2019-01-24T00:41:37.298Z,17.27
2019-01-24T00:44:24.629Z,15.80
2019-01-24T00:47:11.739Z,16.00
2019-01-24T00:49:59.289Z,15.77
2019-01-24T00:52:46.442Z,16.70
2019-01-24T00:55:33.222Z,16.93
2019-01-24T00:58:20.349Z,18.00
2019-01-24T01:01:07.357Z,16.87
2019-01-24T01:03:54.641Z,14.50
2019-01-24T01:06:41.965Z,17.67
2019-01-24T01:09:28.689Z,16.57
2019-01-24T01:12:15.310Z,16.37
2019-01-24T01:15:04.451Z,16.60
2019-01-24T01:17:51.310Z,18.00
2019-01-24T01:20:37.991Z,17.73
2019-01-24T01:23:25.593Z,17.57
2019-01-24T01:26:12.845Z,17.90
2019-01-24T01:28:59.405Z,18.50
2019-01-24T01:31:46.334Z,16.50
2019-01-24T01:34:36.310Z,17.77
2019-01-24T01:37:22.102Z,17.63
2019-01-24T01:40:11.548Z,17.13
2019-01-24T01:42:58.001Z,18.23
2019-01-24T01:45:45.137Z,16.47
2019-01-24T01:48:31.692Z,16.40
2019-01-24T01:51:18.446Z,18.10
2019-01-24T01:54:05.374Z,17.50
2019-01-24T01:56:51.912Z,15.47
2019-01-24T01:59:38.735Z,15.63
2019-01-24T02:02:26.078Z,17.20
2019-01-24T02:05:14.134Z,17.50
2019-01-24T02:08:00.661Z,14.97
2019-01-24T02:10:48.438Z,17.17
2019-01-24T02:13:35.246Z,18.63
2019-01-24T02:16:22.365Z,17.53
2019-01-24T02:19:09.128Z,17.03
2019-01-24T02:21:56.198Z,16.87
2019-01-24T02:24:43.101Z,17.47
2019-01-24T02:27:30.078Z,16.50
2019-01-24T02:30:22.812Z,17.90
2019-01-24T02:33:09.489Z,18.70
2019-01-24T02:35:56.309Z,17.90
2019-01-24T02:38:43.346Z,15.97
2019-01-24T02:41:30.370Z,18.50
2019-01-24T02:44:17.281Z,18.57
2019-01-24T02:47:04.200Z,17.03
2019-01-24T02:49:51.053Z,18.43
2019-01-24T02:52:37.693Z,17.57
2019-01-24T02:55:24.653Z,16.93
2019-01-24T02:58:11.278Z,18.47
2019-01-24T03:00:58.229Z,16.37
2019-01-24T03:03:45.919Z,17.87
2019-01-24T03:06:33.141Z,16.53
2019-01-24T03:09:20.073Z,17.60
2019-01-24T03:12:07.039Z,16.90
2019-01-24T03:14:53.934Z,16.90
2019-01-24T03:17:41.137Z,17.50
2019-01-24T03:20:27.898Z,17.77
2019-01-24T03:23:14.411Z,16.77
2019-01-24T03:26:01.282Z,18.97
2019-01-24T03:28:47.918Z,17.07
2019-01-24T03:31:34.803Z,17.33
2019-01-24T03:34:22.065Z,18.03
2019-01-24T03:37:09.486Z,17.90
2019-01-24T03:39:56.277Z,16.73
2019-01-24T03:42:43.310Z,18.20
2019-01-24T03:45:30.838Z,18.63
2019-01-24T03:48:17.944Z,19.63
2019-01-24T03:51:04.814Z,16.67
2019-01-24T03:53:51.437Z,18.60
2019-01-24T03:56:38.141Z,17.67
2019-01-24T03:59:24.665Z,19.37
2019-01-24T04:02:12.005Z,18.53
2019-01-24T04:04:59.325Z,18.20
2019-01-24T04:07:46.751Z,16.97
2019-01-24T04:10:34.277Z,19.57
2019-01-24T04:13:21.621Z,17.87
2019-01-24T04:16:08.725Z,18.40
2019-01-24T04:18:55.878Z,17.80
2019-01-24T04:21:42.487Z,18.87
2019-01-24T04:24:29.970Z,18.87
2019-01-24T04:27:16.797Z,19.07
2019-01-24T04:30:10.786Z,18.73
2019-01-24T04:32:57.979Z,19.53
2019-01-24T04:35:45.506Z,17.13
2019-01-24T04:38:32.486Z,18.03
2019-01-24T04:41:19.420Z,18.80
2019-01-24T04:44:06.343Z,17.60
2019-01-24T04:46:53.310Z,16.70
2019-01-24T04:49:40.204Z,16.13
2019-01-24T04:52:27.697Z,17.23
2019-01-24T04:55:16.395Z,18.70
2019-01-24T04:58:03.303Z,17.20
2019-01-24T05:00:50.401Z,16.47
2019-01-24T05:03:36.956Z,17.70
2019-01-24T05:06:23.727Z,18.17
2019-01-24T05:09:10.646Z,19.10
2019-01-24T05:11:57.727Z,18.43
2019-01-24T05:14:44.946Z,18.53
2019-01-24T05:17:32.181Z,19.10
2019-01-24T05:20:19.145Z,18.60
2019-01-24T05:23:06.298Z,20.30
2019-01-24T05:25:53.718Z,18.50
2019-01-24T05:28:40.636Z,20.47
2019-01-24T05:31:27.293Z,19.43
2019-01-24T05:34:14.562Z,19.40
2019-01-24T05:37:01.470Z,18.87
2019-01-24T05:39:48.618Z,18.77
2019-01-24T05:42:35.394Z,19.30
2019-01-24T05:45:22.091Z,19.67
2019-01-24T05:48:09.225Z,18.70
2019-01-24T05:50:56.755Z,19.97
2019-01-24T05:53:43.781Z,19.67
2019-01-24T05:56:30.394Z,17.97
2019-01-24T05:59:17.579Z,19.40
2019-01-24T06:02:04.504Z,19.70
2019-01-24T06:04:51.489Z,20.60
2019-01-24T06:07:44.201Z,19.90
2019-01-24T06:10:31.549Z,18.87
2019-01-24T06:13:18.611Z,18.67
2019-01-24T06:16:05.698Z,19.23
2019-01-24T06:18:52.627Z,21.40
2019-01-24T06:21:39.583Z,19.80
2019-01-24T06:24:26.465Z,20.73
2019-01-24T06:27:13.318Z,18.37
2019-01-24T06:30:00.227Z,20.73
2019-01-24T06:32:47.753Z,21.10
2019-01-24T06:35:34.662Z,20.63
2019-01-24T06:38:21.217Z,20.43
2019-01-24T06:41:08.198Z,21.87
2019-01-24T06:43:55.464Z,21.90
2019-01-24T06:46:42.149Z,20.57
2019-01-24T06:49:29.329Z,21.37
2019-01-24T06:52:16.365Z,21.10
2019-01-24T06:55:03.923Z,21.10
2019-01-24T06:57:51.077Z,20.67
2019-01-24T07:00:38.175Z,21.40
2019-01-24T07:03:25.010Z,20.73
2019-01-24T07:06:11.606Z,23.53
2019-01-24T07:08:58.637Z,18.83
2019-01-24T07:11:45.577Z,19.60
2019-01-24T07:14:32.504Z,21.10
2019-01-24T07:17:19.389Z,21.20
2019-01-24T07:20:09.458Z,22.10
2019-01-24T07:22:56.485Z,21.07
2019-01-24T07:25:43.094Z,21.73
2019-01-24T07:28:30.146Z,20.83
2019-01-24T07:31:17.194Z,23.40
2019-01-24T07:34:04.362Z,21.73
2019-01-24T07:36:51.041Z,24.03
2019-01-24T07:39:38.210Z,22.23
2019-01-24T07:42:25.115Z,23.00
2019-01-24T07:45:18.069Z,22.17
2019-01-24T07:48:05.456Z,18.57
2019-01-24T07:50:52.430Z,22.23
2019-01-24T07:53:39.626Z,22.57
2019-01-24T07:56:26.518Z,23.57
2019-01-24T07:59:13.285Z,20.23
2019-01-24T08:01:59.902Z,22.97
2019-01-24T08:04:47.270Z,21.93
2019-01-24T08:07:34.522Z,22.30
2019-01-24T08:10:22.779Z,22.10
2019-01-24T08:13:09.844Z,22.33
2019-01-24T08:15:56.818Z,22.27
2019-01-24T08:18:43.634Z,23.97
2019-01-24T08:21:30.076Z,22.10
2019-01-24T08:24:17.074Z,22.93
2019-01-24T08:27:04.370Z,23.00
2019-01-24T08:29:51.137Z,22.63
2019-01-24T08:32:38.223Z,22.53
2019-01-24T08:35:25.652Z,22.63
2019-01-24T08:38:12.933Z,23.77
2019-01-24T08:40:59.634Z,24.13
2019-01-24T08:43:46.369Z,25.10
2019-01-24T08:46:33.201Z,23.87
2019-01-24T08:49:20.561Z,24.00
2019-01-24T08:52:07.514Z,24.87
2019-01-24T08:54:54.897Z,21.80
2019-01-24T08:57:41.631Z,21.13
2019-01-24T09:00:28.868Z,23.60
2019-01-24T09:03:16.078Z,23.07
2019-01-24T09:06:03.581Z,23.87
2019-01-24T09:08:50.549Z,24.97
2019-01-24T09:11:37.815Z,24.30
2019-01-24T09:14:25.042Z,24.37
2019-01-24T09:17:11.933Z,21.70
2019-01-24T09:19:58.943Z,25.07
2019-01-24T09:22:46.286Z,24.50
2019-01-24T09:25:33.606Z,25.00
2019-01-24T09:28:20.353Z,24.03
2019-01-24T09:31:07.425Z,23.87
2019-01-24T09:33:53.842Z,23.37
2019-01-24T09:36:40.470Z,24.80
2019-01-24T09:39:27.699Z,25.90
2019-01-24T09:42:14.833Z,42.08
2019-01-24T09:45:01.890Z,29.87
2019-01-24T09:47:49.229Z,28.67
2019-01-24T09:50:36.299Z,24.97
2019-01-24T09:53:23.547Z,27.67
2019-01-24T09:56:10.525Z,25.83
2019-01-24T09:58:57.885Z,27.30
2019-01-24T10:01:45.238Z,24.63
2019-01-24T10:04:32.185Z,24.57
2019-01-24T10:07:19.448Z,27.10
2019-01-24T10:10:12.932Z,25.27
2019-01-24T10:13:00.213Z,26.20
2019-01-24T10:15:46.988Z,27.53
2019-01-24T10:18:33.548Z,26.70
2019-01-24T10:21:20.110Z,28.07
2019-01-24T10:24:06.983Z,26.27
2019-01-24T10:26:54.018Z,26.37
2019-01-24T10:29:41.093Z,24.93
2019-01-24T10:32:28.414Z,24.70
2019-01-24T10:35:15.470Z,28.23
2019-01-24T10:38:02.680Z,26.80
2019-01-24T10:40:49.693Z,24.80
2019-01-24T10:43:36.563Z,26.10
2019-01-24T10:46:23.523Z,27.27
2019-01-24T10:49:10.717Z,28.73
2019-01-24T10:51:57.833Z,26.53
2019-01-24T10:54:44.441Z,26.50
2019-01-24T10:57:31.242Z,27.47
2019-01-24T11:00:33.457Z,27.53
2019-01-24T11:03:20.362Z,28.87
2019-01-24T11:06:07.438Z,26.80
2019-01-24T11:08:54.112Z,25.77
2019-01-24T11:11:41.066Z,27.03
2019-01-24T11:14:28.650Z,26.70
2019-01-24T11:17:15.606Z,28.00
2019-01-24T11:20:04.669Z,28.37
2019-01-24T11:22:51.640Z,27.03
2019-01-24T11:25:39.010Z,26.73
2019-01-24T11:28:27.433Z,27.23
2019-01-24T11:31:14.434Z,28.27
2019-01-24T11:34:01.799Z,25.00
2019-01-24T11:36:48.933Z,26.37
2019-01-24T11:39:35.506Z,26.90
2019-01-24T11:42:22.638Z,27.87
2019-01-24T11:45:12.315Z,26.13
2019-01-24T11:47:59.941Z,26.40
2019-01-24T11:50:46.790Z,28.73
2019-01-24T11:53:33.754Z,24.60
2019-01-24T11:56:20.691Z,27.73
2019-01-24T11:59:07.233Z,25.33
2019-01-24T12:01:54.289Z,26.97
2019-01-24T12:04:41.155Z,25.53
2019-01-24T12:07:27.750Z,27.50
2019-01-24T12:10:17.704Z,25.50
2019-01-24T12:13:05.430Z,25.93
2019-01-24T12:15:52.996Z,26.33
2019-01-24T12:18:39.758Z,29.53
2019-01-24T12:21:26.823Z,26.97
2019-01-24T12:24:13.341Z,26.47
2019-01-24T12:27:00.510Z,26.03
2019-01-24T12:29:47.654Z,24.87
2019-01-24T12:32:35.289Z,26.73
2019-01-24T12:35:22.170Z,25.60
2019-01-24T12:38:09.498Z,25.77
2019-01-24T12:40:56.227Z,26.13
2019-01-24T12:43:43.415Z,27.17
2019-01-24T12:46:30.529Z,27.30
2019-01-24T12:49:17.546Z,25.77
2019-01-24T12:52:04.449Z,24.90
2019-01-24T12:54:51.602Z,26.03
2019-01-24T12:57:38.453Z,23.33
2019-01-24T13:00:27.969Z,28.37
2019-01-24T13:03:14.942Z,28.30
2019-01-24T13:06:02.664Z,27.03
2019-01-24T13:08:49.626Z,26.90
2019-01-24T13:11:36.974Z,25.67
2019-01-24T13:14:23.966Z,25.67
2019-01-24T13:17:10.983Z,26.43
2019-01-24T13:19:58.058Z,25.90
2019-01-24T13:22:45.026Z,25.23
2019-01-24T13:25:33.255Z,27.37
2019-01-24T13:28:20.285Z,26.20
2019-01-24T13:31:07.490Z,25.17
2019-01-24T13:33:54.710Z,25.73
2019-01-24T13:36:42.233Z,26.10
2019-01-24T13:39:29.494Z,27.53
2019-01-24T13:42:16.265Z,27.70
2019-01-24T13:45:06.045Z,26.00
2019-01-24T13:47:52.713Z,25.60
2019-01-24T13:50:39.666Z,26.63
2019-01-24T13:53:26.834Z,24.67
2019-01-24T13:56:13.650Z,23.33
2019-01-24T13:59:00.709Z,24.40
2019-01-24T14:01:47.754Z,24.20
2019-01-24T14:04:34.305Z,20.03
2019-01-24T14:07:21.857Z,19.57
2019-01-24T14:10:11.945Z,19.53
2019-01-24T14:12:58.854Z,18.70
2019-01-24T14:15:46.282Z,19.53
2019-01-24T14:18:33.522Z,18.80
2019-01-24T14:21:20.824Z,18.80
2019-01-24T14:24:07.838Z,21.33
2019-01-24T14:26:54.984Z,21.87
2019-01-24T14:29:41.781Z,19.80
2019-01-24T14:32:28.784Z,21.00
2019-01-24T14:35:16.265Z,21.97
2019-01-24T14:38:03.263Z,20.47
2019-01-24T14:40:50.164Z,20.50
2019-01-24T14:43:37.129Z,20.03
2019-01-24T14:46:24.032Z,21.87
2019-01-24T14:49:10.774Z,21.53
2019-01-24T14:51:57.579Z,21.63
2019-01-24T14:54:44.286Z,22.43
2019-01-24T14:57:31.342Z,22.60
2019-01-24T15:00:21.136Z,22.93
2019-01-24T15:03:08.065Z,21.43
2019-01-24T15:05:54.875Z,22.13
2019-01-24T15:08:42.128Z,20.90
2019-01-24T15:11:29.525Z,21.27
2019-01-24T15:14:16.491Z,20.53
2019-01-24T15:17:03.318Z,22.63
2019-01-24T15:19:50.284Z,24.23
2019-01-24T15:22:37.373Z,23.27
2019-01-24T15:25:24.351Z,21.07
2019-01-24T15:28:11.778Z,22.07
2019-01-24T15:30:58.641Z,23.07
2019-01-24T15:33:45.179Z,22.73
2019-01-24T15:36:32.282Z,22.73
2019-01-24T15:39:19.498Z,22.37
2019-01-24T15:42:06.158Z,21.83
2019-01-24T15:44:53.429Z,24.37
2019-01-24T15:47:40.442Z,22.40
2019-01-24T15:50:27.762Z,24.60
2019-01-24T15:53:14.645Z,23.63
2019-01-24T15:56:01.681Z,25.53
2019-01-24T15:58:48.830Z,23.00
2019-01-24T16:01:35.744Z,23.80
2019-01-24T16:04:22.269Z,23.67
2019-01-24T16:07:09.646Z,22.73
2019-01-24T16:09:56.896Z,24.10
2019-01-24T16:12:43.653Z,23.40
2019-01-24T16:15:32.829Z,23.87
2019-01-24T16:18:19.802Z,23.37
2019-01-24T16:21:06.706Z,24.00
2019-01-24T16:23:53.451Z,23.27
2019-01-24T16:26:40.226Z,24.23
2019-01-24T16:29:27.375Z,25.30
2019-01-24T16:32:14.941Z,24.80
2019-01-24T16:35:03.817Z,24.93
2019-01-24T16:37:51.334Z,24.77
2019-01-24T16:40:38.486Z,24.17
2019-01-24T16:43:26.211Z,23.93
2019-01-24T16:46:13.718Z,24.07
2019-01-24T16:49:01.136Z,23.23
2019-01-24T16:51:47.923Z,25.67
2019-01-24T16:54:34.662Z,23.97
2019-01-24T16:57:22.058Z,25.20
2019-01-24T17:00:27.197Z,24.17
2019-01-24T17:03:14.238Z,23.83
2019-01-24T17:06:01.460Z,22.13
2019-01-24T17:08:48.517Z,24.30
2019-01-24T17:11:35.394Z,21.60
2019-01-24T17:14:22.677Z,24.67
2019-01-24T17:17:09.709Z,25.53
2019-01-24T17:19:56.783Z,24.57
2019-01-24T17:22:43.538Z,26.03
2019-01-24T17:25:31.925Z,24.73
2019-01-24T17:28:18.479Z,23.70
2019-01-24T17:31:05.325Z,25.23
2019-01-24T17:33:52.010Z,25.73
2019-01-24T17:36:39.018Z,26.33
2019-01-24T17:39:26.604Z,23.07
2019-01-24T17:42:13.457Z,24.70
2019-01-24T17:45:00.158Z,24.10
2019-01-24T17:47:47.861Z,22.73
2019-01-24T17:50:35.243Z,24.07
2019-01-24T17:53:22.132Z,23.07
2019-01-24T17:56:09.373Z,25.63
2019-01-24T17:58:56.678Z,21.93
2019-01-24T18:01:44.211Z,25.87
2019-01-24T18:04:30.949Z,25.37
2019-01-24T18:07:18.025Z,28.33
2019-01-24T18:10:17.439Z,22.67
2019-01-24T18:13:04.622Z,24.07
2019-01-24T18:15:51.978Z,25.53
2019-01-24T18:18:39.191Z,24.57
2019-01-24T18:21:25.901Z,24.07
2019-01-24T18:24:12.834Z,23.87
2019-01-24T18:28:41.574Z,23.03
2019-01-24T18:31:29.177Z,23.17
2019-01-24T18:34:16.669Z,23.87
